Port Lincoln Aerodrome, Australia
Current Conditions -  °F | °C
As of 6:00 AM on Friday 19 Dec 2014 (Local Time) from YWHA Reporting Station
Overcast Overcast  
Wind Chill: 63°   Ceiling: 4000
Heat Index: 63°   Visibility: 6mi
Dew Point: 48°   Wind: 9mph
Humidity: 59%   Direction: 150°SSE
Pressure: 30.06"   Gusts: NA
Location:  34.6°S, 135.87°E
Report Text: YWHA 182000Z AUTO 15008KT 9999 // OVC040 17/09 Q1018
Loading
Personal Weather Stations






























Interactive Weather Map New forecast layout! Learn more

10-Day Weather Forecast

Advertisements
Track Severe Weather on mobile